sensor_id;sensor_type;location;lat;lon;timestamp;pressure;altitude;pressure_sealevel;temperature;humidity
36514;BME280;66331;46.796;9.824;2023-01-29T00:00:13;84728.71;;;-11.29;41.21
36514;BME280;66331;46.796;9.824;2023-01-29T00:02:40;84729.30;;;-11.13;41.25
36514;BME280;66331;46.796;9.824;2023-01-29T00:05:08;84732.23;;;-11.90;41.76
36514;BME280;66331;46.796;9.824;2023-01-29T00:07:35;84729.36;;;-11.09;41.45
36514;BME280;66331;46.796;9.824;2023-01-29T00:10:03;84727.11;;;-11.32;40.86
36514;BME280;66331;46.796;9.824;2023-01-29T00:12:30;84728.83;;;-11.37;41.01
36514;BME280;66331;46.796;9.824;2023-01-29T00:15:04;84725.56;;;-10.15;39.06
36514;BME280;66331;46.796;9.824;2023-01-29T00:17:32;84725.59;;;-10.33;38.77
36514;BME280;66331;46.796;9.824;2023-01-29T00:19:59;84729.01;;;-11.51;41.82
36514;BME280;66331;46.796;9.824;2023-01-29T00:22:26;84728.21;;;-12.43;42.44
36514;BME280;66331;46.796;9.824;2023-01-29T00:24:55;84728.04;;;-11.40;40.78
36514;BME280;66331;46.796;9.824;2023-01-29T00:27:22;84727.18;;;-11.22;40.07
36514;BME280;66331;46.796;9.824;2023-01-29T00:29:50;84725.29;;;-11.29;40.76
36514;BME280;66331;46.796;9.824;2023-01-29T00:32:17;84721.92;;;-10.69;39.34
36514;BME280;66331;46.796;9.824;2023-01-29T00:34:44;84719.07;;;-11.34;40.41
36514;BME280;66331;46.796;9.824;2023-01-29T00:37:12;84718.64;;;-11.84;41.34
36514;BME280;66331;46.796;9.824;2023-01-29T00:39:39;84715.41;;;-10.52;39.21
36514;BME280;66331;46.796;9.824;2023-01-29T00:42:06;84717.96;;;-12.37;41.61
36514;BME280;66331;46.796;9.824;2023-01-29T00:44:34;84718.97;;;-12.87;42.58
36514;BME280;66331;46.796;9.824;2023-01-29T00:47:02;84714.45;;;-13.28;43.43
36514;BME280;66331;46.796;9.824;2023-01-29T00:49:30;84712.77;;;-12.50;42.02
36514;BME280;66331;46.796;9.824;2023-01-29T00:51:57;84710.11;;;-12.01;40.89
36514;BME280;66331;46.796;9.824;2023-01-29T00:54:24;84701.47;;;-10.78;39.17
36514;BME280;66331;46.796;9.824;2023-01-29T00:56:57;84700.33;;;-11.30;39.74
36514;BME280;66331;46.796;9.824;2023-01-29T00:59:24;84697.35;;;-11.64;40.11
36514;BME280;66331;46.796;9.824;2023-01-29T01:01:52;84696.67;;;-12.03;41.18
36514;BME280;66331;46.796;9.824;2023-01-29T01:04:19;84694.22;;;-12.15;41.14
36514;BME280;66331;46.796;9.824;2023-01-29T01:06:48;84696.43;;;-12.60;42.42
36514;BME280;66331;46.796;9.824;2023-01-29T01:09:17;84694.31;;;-12.65;42.91
36514;BME280;66331;46.796;9.824;2023-01-29T01:11:48;84693.91;;;-11.93;41.18
36514;BME280;66331;46.796;9.824;2023-01-29T01:14:16;84694.33;;;-11.81;40.77
36514;BME280;66331;46.796;9.824;2023-01-29T01:16:44;84691.38;;;-11.98;40.82
36514;BME280;66331;46.796;9.824;2023-01-29T01:19:11;84693.53;;;-13.01;43.35
36514;BME280;66331;46.796;9.824;2023-01-29T01:21:38;84694.00;;;-14.07;44.70
36514;BME280;66331;46.796;9.824;2023-01-29T01:24:06;84703.66;;;-14.23;45.75
36514;BME280;66331;46.796;9.824;2023-01-29T01:26:35;84704.76;;;-12.88;42.95
36514;BME280;66331;46.796;9.824;2023-01-29T01:29:03;84705.25;;;-12.27;42.51
36514;BME280;66331;46.796;9.824;2023-01-29T01:31:31;84706.61;;;-12.89;43.47
36514;BME280;66331;46.796;9.824;2023-01-29T01:34:01;84702.57;;;-11.33;41.12
36514;BME280;66331;46.796;9.824;2023-01-29T01:36:29;84699.87;;;-11.42;40.92
36514;BME280;66331;46.796;9.824;2023-01-29T01:38:56;84699.32;;;-11.31;40.84
36514;BME280;66331;46.796;9.824;2023-01-29T01:41:25;84707.95;;;-11.79;41.28
36514;BME280;66331;46.796;9.824;2023-01-29T01:43:55;84707.77;;;-11.17;40.61
36514;BME280;66331;46.796;9.824;2023-01-29T01:46:25;84711.31;;;-13.34;43.29
36514;BME280;66331;46.796;9.824;2023-01-29T01:48:58;84712.30;;;-13.91;44.70
36514;BME280;66331;46.796;9.824;2023-01-29T01:51:30;84712.53;;;-13.81;44.57
36514;BME280;66331;46.796;9.824;2023-01-29T01:54:05;84716.18;;;-12.09;42.32
36514;BME280;66331;46.796;9.824;2023-01-29T01:56:36;84718.96;;;-12.40;42.65
36514;BME280;66331;46.796;9.824;2023-01-29T01:59:08;84722.96;;;-12.61;43.12
36514;BME280;66331;46.796;9.824;2023-01-29T02:01:38;84727.76;;;-12.13;41.99
36514;BME280;66331;46.796;9.824;2023-01-29T02:04:10;84725.28;;;-12.94;42.73
36514;BME280;66331;46.796;9.824;2023-01-29T02:06:39;84728.20;;;-12.95;41.65
36514;BME280;66331;46.796;9.824;2023-01-29T02:09:11;84730.16;;;-13.15;42.00
36514;BME280;66331;46.796;9.824;2023-01-29T02:11:42;84734.52;;;-12.16;40.19
36514;BME280;66331;46.796;9.824;2023-01-29T02:14:10;84737.15;;;-12.52;40.86
36514;BME280;66331;46.796;9.824;2023-01-29T02:16:39;84730.00;;;-11.99;39.66
36514;BME280;66331;46.796;9.824;2023-01-29T02:19:12;84726.00;;;-11.94;40.09
36514;BME280;66331;46.796;9.824;2023-01-29T02:22:00;84728.06;;;-11.84;39.07
36514;BME280;66331;46.796;9.824;2023-01-29T02:25:49;84726.62;;;-11.72;38.98
36514;BME280;66331;46.796;9.824;2023-01-29T02:28:29;84738.05;;;-14.82;44.22
36514;BME280;66331;46.796;9.824;2023-01-29T02:31:05;84736.65;;;-13.75;43.08
36514;BME280;66331;46.796;9.824;2023-01-29T02:33:43;84728.34;;;-13.00;40.80
36514;BME280;66331;46.796;9.824;2023-01-29T02:36:22;84725.88;;;-12.33;39.64
36514;BME280;66331;46.796;9.824;2023-01-29T02:38:59;84726.92;;;-12.60;40.23
36514;BME280;66331;46.796;9.824;2023-01-29T02:41:36;84724.14;;;-12.67;39.64
36514;BME280;66331;46.796;9.824;2023-01-29T02:44:17;84716.64;;;-11.98;39.35
36514;BME280;66331;46.796;9.824;2023-01-29T02:46:53;84718.11;;;-13.24;41.86
36514;BME280;66331;46.796;9.824;2023-01-29T02:49:26;84720.58;;;-12.25;39.98
36514;BME280;66331;46.796;9.824;2023-01-29T02:52:02;84721.94;;;-12.40;39.80
36514;BME280;66331;46.796;9.824;2023-01-29T02:54:40;84721.95;;;-12.47;39.89
36514;BME280;66331;46.796;9.824;2023-01-29T02:57:15;84722.79;;;-12.04;39.76
36514;BME280;66331;46.796;9.824;2023-01-29T02:59:48;84728.98;;;-13.79;42.57
36514;BME280;66331;46.796;9.824;2023-01-29T03:02:19;84726.94;;;-13.07;41.80
36514;BME280;66331;46.796;9.824;2023-01-29T03:04:51;84724.82;;;-12.16;39.86
36514;BME280;66331;46.796;9.824;2023-01-29T03:07:27;84728.37;;;-12.59;40.12
36514;BME280;66331;46.796;9.824;2023-01-29T03:09:56;84734.54;;;-13.31;41.14
36514;BME280;66331;46.796;9.824;2023-01-29T03:12:28;84737.94;;;-12.87;40.79
36514;BME280;66331;46.796;9.824;2023-01-29T03:14:57;84741.88;;;-12.45;40.27
36514;BME280;66331;46.796;9.824;2023-01-29T03:17:34;84741.21;;;-12.79;40.61
36514;BME280;66331;46.796;9.824;2023-01-29T03:20:02;84738.10;;;-12.54;41.10
36514;BME280;66331;46.796;9.824;2023-01-29T03:22:31;84736.21;;;-13.08;41.90
36514;BME280;66331;46.796;9.824;2023-01-29T03:25:00;84740.26;;;-13.24;42.23
36514;BME280;66331;46.796;9.824;2023-01-29T03:27:33;84749.22;;;-13.63;42.32
36514;BME280;66331;46.796;9.824;2023-01-29T03:30:03;84759.67;;;-13.98;41.91
36514;BME280;66331;46.796;9.824;2023-01-29T03:32:31;84761.58;;;-13.67;41.27
36514;BME280;66331;46.796;9.824;2023-01-29T03:35:02;84754.87;;;-13.02;40.54
36514;BME280;66331;46.796;9.824;2023-01-29T03:37:34;84756.47;;;-13.54;41.58
36514;BME280;66331;46.796;9.824;2023-01-29T03:40:03;84764.22;;;-13.03;41.04
36514;BME280;66331;46.796;9.824;2023-01-29T03:42:41;84773.63;;;-13.03;40.52
36514;BME280;66331;46.796;9.824;2023-01-29T03:45:15;84773.42;;;-12.92;40.15
36514;BME280;66331;46.796;9.824;2023-01-29T03:47:50;84771.71;;;-12.73;39.79
36514;BME280;66331;46.796;9.824;2023-01-29T03:50:31;84780.58;;;-13.53;41.01
36514;BME280;66331;46.796;9.824;2023-01-29T03:53:07;84776.95;;;-13.69;41.50
36514;BME280;66331;46.796;9.824;2023-01-29T03:55:40;84774.99;;;-13.68;41.16
36514;BME280;66331;46.796;9.824;2023-01-29T03:58:19;84766.21;;;-13.26;41.17
36514;BME280;66331;46.796;9.824;2023-01-29T04:00:52;84763.20;;;-12.43;39.82
36514;BME280;66331;46.796;9.824;2023-01-29T04:03:23;84763.50;;;-13.24;40.84
36514;BME280;66331;46.796;9.824;2023-01-29T04:05:54;84761.57;;;-13.70;41.16
36514;BME280;66331;46.796;9.824;2023-01-29T04:08:26;84761.20;;;-14.34;43.10
36514;BME280;66331;46.796;9.824;2023-01-29T04:10:57;84756.63;;;-13.56;42.37
36514;BME280;66331;46.796;9.824;2023-01-29T04:13:26;84755.37;;;-13.27;40.83
36514;BME280;66331;46.796;9.824;2023-01-29T04:15:55;84763.07;;;-13.92;41.91
36514;BME280;66331;46.796;9.824;2023-01-29T04:18:24;84761.30;;;-14.10;42.27
36514;BME280;66331;46.796;9.824;2023-01-29T04:20:51;84754.82;;;-14.00;42.31
36514;BME280;66331;46.796;9.824;2023-01-29T04:23:21;84747.29;;;-13.63;42.15
36514;BME280;66331;46.796;9.824;2023-01-29T04:25:55;84737.84;;;-13.09;41.09
36514;BME280;66331;46.796;9.824;2023-01-29T04:28:46;84735.56;;;-13.45;41.74
36514;BME280;66331;46.796;9.824;2023-01-29T04:31:16;84739.19;;;-13.73;41.90
36514;BME280;66331;46.796;9.824;2023-01-29T04:33:49;84736.72;;;-14.47;42.74
36514;BME280;66331;46.796;9.824;2023-01-29T04:36:29;84740.23;;;-14.23;43.32
36514;BME280;66331;46.796;9.824;2023-01-29T04:39:08;84735.47;;;-14.17;43.36
36514;BME280;66331;46.796;9.824;2023-01-29T04:41:41;84733.76;;;-14.37;43.17
36514;BME280;66331;46.796;9.824;2023-01-29T04:44:17;84733.56;;;-14.37;42.92
36514;BME280;66331;46.796;9.824;2023-01-29T04:46:51;84731.57;;;-14.07;42.55
36514;BME280;66331;46.796;9.824;2023-01-29T04:49:28;84727.91;;;-13.41;41.89
36514;BME280;66331;46.796;9.824;2023-01-29T04:52:02;84725.75;;;-13.92;41.96
36514;BME280;66331;46.796;9.824;2023-01-29T04:54:43;84715.90;;;-12.86;40.83
36514;BME280;66331;46.796;9.824;2023-01-29T04:57:21;84710.41;;;-13.49;41.38
36514;BME280;66331;46.796;9.824;2023-01-29T04:59:56;84706.67;;;-13.04;41.17
36514;BME280;66331;46.796;9.824;2023-01-29T05:02:27;84707.56;;;-13.87;42.81
36514;BME280;66331;46.796;9.824;2023-01-29T05:04:55;84704.58;;;-13.25;41.21
36514;BME280;66331;46.796;9.824;2023-01-29T05:07:25;84706.86;;;-12.91;41.78
36514;BME280;66331;46.796;9.824;2023-01-29T05:09:55;84708.08;;;-12.68;40.18
36514;BME280;66331;46.796;9.824;2023-01-29T05:12:24;84713.57;;;-13.45;40.71
36514;BME280;66331;46.796;9.824;2023-01-29T05:14:53;84716.75;;;-13.85;41.40
36514;BME280;66331;46.796;9.824;2023-01-29T05:17:23;84721.03;;;-13.91;41.64
36514;BME280;66331;46.796;9.824;2023-01-29T05:19:51;84720.20;;;-13.49;41.22
36514;BME280;66331;46.796;9.824;2023-01-29T05:22:18;84722.29;;;-13.25;41.27
36514;BME280;66331;46.796;9.824;2023-01-29T05:24:45;84723.81;;;-12.92;40.95
36514;BME280;66331;46.796;9.824;2023-01-29T05:27:16;84733.73;;;-14.13;42.51
36514;BME280;66331;46.796;9.824;2023-01-29T05:29:45;84739.38;;;-14.39;43.29
36514;BME280;66331;46.796;9.824;2023-01-29T05:32:12;84742.67;;;-14.47;42.94
36514;BME280;66331;46.796;9.824;2023-01-29T05:34:39;84748.69;;;-14.74;43.12
36514;BME280;66331;46.796;9.824;2023-01-29T05:37:08;84753.02;;;-13.94;42.21
36514;BME280;66331;46.796;9.824;2023-01-29T05:39:35;84757.96;;;-14.23;42.54
36514;BME280;66331;46.796;9.824;2023-01-29T05:42:03;84760.52;;;-13.73;41.08
36514;BME280;66331;46.796;9.824;2023-01-29T05:44:30;84761.89;;;-13.41;40.95
36514;BME280;66331;46.796;9.824;2023-01-29T05:46:58;84762.50;;;-13.56;40.98
36514;BME280;66331;46.796;9.824;2023-01-29T05:49:25;84762.14;;;-14.09;41.87
36514;BME280;66331;46.796;9.824;2023-01-29T05:51:52;84763.65;;;-14.10;42.84
36514;BME280;66331;46.796;9.824;2023-01-29T05:54:20;84763.76;;;-13.34;41.41
36514;BME280;66331;46.796;9.824;2023-01-29T05:56:47;84767.05;;;-13.54;41.84
36514;BME280;66331;46.796;9.824;2023-01-29T05:59:15;84764.96;;;-13.81;42.26
36514;BME280;66331;46.796;9.824;2023-01-29T06:01:42;84770.78;;;-13.79;42.21
36514;BME280;66331;46.796;9.824;2023-01-29T06:04:10;84776.54;;;-14.56;42.66
36514;BME280;66331;46.796;9.824;2023-01-29T06:06:37;84772.55;;;-13.28;40.62
36514;BME280;66331;46.796;9.824;2023-01-29T06:09:05;84771.50;;;-13.40;40.31
36514;BME280;66331;46.796;9.824;2023-01-29T06:11:32;84760.72;;;-13.09;40.59
36514;BME280;66331;46.796;9.824;2023-01-29T06:13:59;84768.09;;;-13.67;41.46
36514;BME280;66331;46.796;9.824;2023-01-29T06:16:27;84770.82;;;-14.44;42.79
36514;BME280;66331;46.796;9.824;2023-01-29T06:18:54;84769.54;;;-14.32;43.12
36514;BME280;66331;46.796;9.824;2023-01-29T06:21:22;84764.97;;;-13.71;41.78
36514;BME280;66331;46.796;9.824;2023-01-29T06:23:52;84763.38;;;-14.05;41.66
36514;BME280;66331;46.796;9.824;2023-01-29T06:26:19;84760.72;;;-13.87;41.58
36514;BME280;66331;46.796;9.824;2023-01-29T06:28:47;84760.56;;;-13.15;40.64
36514;BME280;66331;46.796;9.824;2023-01-29T06:31:14;84768.32;;;-14.77;43.02
36514;BME280;66331;46.796;9.824;2023-01-29T06:33:42;84763.52;;;-13.72;42.28
36514;BME280;66331;46.796;9.824;2023-01-29T06:36:09;84757.32;;;-13.34;41.71
36514;BME280;66331;46.796;9.824;2023-01-29T06:38:37;84761.07;;;-14.13;41.67
36514;BME280;66331;46.796;9.824;2023-01-29T06:41:09;84761.66;;;-13.40;40.60
36514;BME280;66331;46.796;9.824;2023-01-29T06:43:36;84756.71;;;-13.43;40.03
36514;BME280;66331;46.796;9.824;2023-01-29T06:46:06;84765.16;;;-13.80;40.42
36514;BME280;66331;46.796;9.824;2023-01-29T06:48:34;84763.87;;;-13.63;41.05
36514;BME280;66331;46.796;9.824;2023-01-29T06:51:02;84764.68;;;-13.41;41.41
36514;BME280;66331;46.796;9.824;2023-01-29T06:53:29;84764.23;;;-13.12;41.69
36514;BME280;66331;46.796;9.824;2023-01-29T06:55:56;84771.50;;;-15.09;43.94
36514;BME280;66331;46.796;9.824;2023-01-29T06:58:24;84776.46;;;-15.37;43.68
36514;BME280;66331;46.796;9.824;2023-01-29T07:00:52;84781.27;;;-14.40;42.04
36514;BME280;66331;46.796;9.824;2023-01-29T07:03:19;84786.42;;;-13.77;41.15
36514;BME280;66331;46.796;9.824;2023-01-29T07:05:50;84789.43;;;-13.36;41.45
36514;BME280;66331;46.796;9.824;2023-01-29T07:08:17;84799.92;;;-13.95;42.15
36514;BME280;66331;46.796;9.824;2023-01-29T07:10:45;84802.91;;;-14.11;43.36
36514;BME280;66331;46.796;9.824;2023-01-29T07:13:11;84809.16;;;-13.99;44.13
36514;BME280;66331;46.796;9.824;2023-01-29T07:15:38;84805.38;;;-13.03;42.11
36514;BME280;66331;46.796;9.824;2023-01-29T07:18:05;84804.86;;;-14.68;43.18
36514;BME280;66331;46.796;9.824;2023-01-29T07:20:31;84806.42;;;-13.62;41.09
36514;BME280;66331;46.796;9.824;2023-01-29T07:22:58;84812.41;;;-13.38;41.30
36514;BME280;66331;46.796;9.824;2023-01-29T07:25:26;84818.51;;;-13.51;40.59
36514;BME280;66331;46.796;9.824;2023-01-29T07:27:53;84825.79;;;-13.93;41.15
36514;BME280;66331;46.796;9.824;2023-01-29T07:30:19;84823.30;;;-13.23;40.81
36514;BME280;66331;46.796;9.824;2023-01-29T07:32:47;84822.38;;;-12.73;40.03
36514;BME280;66331;46.796;9.824;2023-01-29T07:35:15;84831.89;;;-13.71;42.11
36514;BME280;66331;46.796;9.824;2023-01-29T07:37:42;84834.71;;;-15.01;43.08
36514;BME280;66331;46.796;9.824;2023-01-29T07:40:10;84834.28;;;-14.95;42.82
36514;BME280;66331;46.796;9.824;2023-01-29T07:42:37;84834.64;;;-14.71;42.55
36514;BME280;66331;46.796;9.824;2023-01-29T07:45:06;84830.16;;;-13.46;41.37
36514;BME280;66331;46.796;9.824;2023-01-29T07:47:34;84831.90;;;-13.22;40.56
36514;BME280;66331;46.796;9.824;2023-01-29T07:50:00;84834.69;;;-14.74;42.56
36514;BME280;66331;46.796;9.824;2023-01-29T07:52:29;84832.42;;;-14.04;41.58
36514;BME280;66331;46.796;9.824;2023-01-29T07:54:56;84834.10;;;-13.77;41.00
36514;BME280;66331;46.796;9.824;2023-01-29T07:57:24;84838.80;;;-14.21;41.50
36514;BME280;66331;46.796;9.824;2023-01-29T07:59:51;84839.28;;;-13.20;39.54
36514;BME280;66331;46.796;9.824;2023-01-29T08:02:18;84841.25;;;-13.56;40.05
36514;BME280;66331;46.796;9.824;2023-01-29T08:04:45;84838.75;;;-13.34;40.43
36514;BME280;66331;46.796;9.824;2023-01-29T08:07:12;84840.25;;;-13.29;40.11
36514;BME280;66331;46.796;9.824;2023-01-29T08:09:39;84833.19;;;-13.25;40.31
36514;BME280;66331;46.796;9.824;2023-01-29T08:12:06;84833.72;;;-13.02;40.59
36514;BME280;66331;46.796;9.824;2023-01-29T08:14:33;84834.47;;;-13.26;40.82
36514;BME280;66331;46.796;9.824;2023-01-29T08:16:59;84833.02;;;-13.19;40.65
36514;BME280;66331;46.796;9.824;2023-01-29T08:19:26;84839.56;;;-13.99;41.71
36514;BME280;66331;46.796;9.824;2023-01-29T08:21:54;84834.43;;;-12.45;40.34
36514;BME280;66331;46.796;9.824;2023-01-29T08:24:21;84835.28;;;-12.70;40.90
36514;BME280;66331;46.796;9.824;2023-01-29T08:26:49;84840.40;;;-12.78;40.72
36514;BME280;66331;46.796;9.824;2023-01-29T08:29:16;84837.46;;;-13.46;41.51
36514;BME280;66331;46.796;9.824;2023-01-29T08:31:43;84834.24;;;-13.86;42.96
36514;BME280;66331;46.796;9.824;2023-01-29T08:34:11;84837.95;;;-13.24;42.17
36514;BME280;66331;46.796;9.824;2023-01-29T08:36:37;84835.28;;;-13.35;42.17
36514;BME280;66331;46.796;9.824;2023-01-29T08:39:04;84835.17;;;-12.73;41.60
36514;BME280;66331;46.796;9.824;2023-01-29T08:41:32;84828.19;;;-11.93;40.26
36514;BME280;66331;46.796;9.824;2023-01-29T08:43:59;84825.05;;;-12.11;40.80
36514;BME280;66331;46.796;9.824;2023-01-29T08:46:27;84822.34;;;-11.90;40.53
36514;BME280;66331;46.796;9.824;2023-01-29T08:48:54;84821.33;;;-11.78;40.59
36514;BME280;66331;46.796;9.824;2023-01-29T08:51:21;84831.78;;;-13.45;43.08
36514;BME280;66331;46.796;9.824;2023-01-29T08:53:50;84836.11;;;-13.44;42.71
36514;BME280;66331;46.796;9.824;2023-01-29T08:56:17;84834.96;;;-12.76;41.91
36514;BME280;66331;46.796;9.824;2023-01-29T08:58:44;84836.27;;;-12.89;42.32
36514;BME280;66331;46.796;9.824;2023-01-29T09:01:12;84828.92;;;-12.66;41.73
36514;BME280;66331;46.796;9.824;2023-01-29T09:03:40;84838.43;;;-13.24;42.52
36514;BME280;66331;46.796;9.824;2023-01-29T09:06:09;84831.51;;;-11.44;40.23
36514;BME280;66331;46.796;9.824;2023-01-29T09:08:36;84840.82;;;-13.09;42.37
36514;BME280;66331;46.796;9.824;2023-01-29T09:11:05;84838.08;;;-12.10;40.81
36514;BME280;66331;46.796;9.824;2023-01-29T09:13:32;84841.76;;;-12.15;40.49
36514;BME280;66331;46.796;9.824;2023-01-29T09:16:00;84842.97;;;-11.93;40.43
36514;BME280;66331;46.796;9.824;2023-01-29T09:18:28;84842.78;;;-11.63;40.39
36514;BME280;66331;46.796;9.824;2023-01-29T09:20:55;84840.53;;;-11.12;40.16
36514;BME280;66331;46.796;9.824;2023-01-29T09:23:23;84840.66;;;-11.82;40.70
36514;BME280;66331;46.796;9.824;2023-01-29T09:25:50;84840.71;;;-10.89;39.92
36514;BME280;66331;46.796;9.824;2023-01-29T09:28:17;84835.61;;;-10.75;39.89
36514;BME280;66331;46.796;9.824;2023-01-29T09:30:44;84836.41;;;-10.97;40.46
36514;BME280;66331;46.796;9.824;2023-01-29T09:33:12;84834.14;;;-11.17;40.89
36514;BME280;66331;46.796;9.824;2023-01-29T09:35:40;84828.94;;;-10.59;40.36
36514;BME280;66331;46.796;9.824;2023-01-29T09:38:07;84826.52;;;-10.79;40.56
36514;BME280;66331;46.796;9.824;2023-01-29T09:40:45;84826.85;;;-9.66;39.90
36514;BME280;66331;46.796;9.824;2023-01-29T09:43:17;84825.57;;;-9.92;39.88
36514;BME280;66331;46.796;9.824;2023-01-29T09:45:52;84825.38;;;-9.77;39.37
36514;BME280;66331;46.796;9.824;2023-01-29T09:48:24;84821.79;;;-9.71;39.43
36514;BME280;66331;46.796;9.824;2023-01-29T09:50:53;84821.57;;;-11.00;41.82
36514;BME280;66331;46.796;9.824;2023-01-29T09:53:28;84816.32;;;-10.22;41.27
36514;BME280;66331;46.796;9.824;2023-01-29T09:56:00;84816.17;;;-10.78;42.28
36514;BME280;66331;46.796;9.824;2023-01-29T09:58:31;84812.12;;;-9.63;39.52
36514;BME280;66331;46.796;9.824;2023-01-29T10:01:09;84806.70;;;-8.73;38.96
36514;BME280;66331;46.796;9.824;2023-01-29T10:03:51;84805.47;;;-9.89;41.68
36514;BME280;66331;46.796;9.824;2023-01-29T10:06:28;84799.00;;;-10.18;42.72
36514;BME280;66331;46.796;9.824;2023-01-29T10:09:28;84794.57;;;-10.67;43.65
36514;BME280;66331;46.796;9.824;2023-01-29T10:12:11;84791.42;;;-10.49;43.25
36514;BME280;66331;46.796;9.824;2023-01-29T10:14:46;84789.58;;;-9.70;41.38
36514;BME280;66331;46.796;9.824;2023-01-29T10:17:29;84782.19;;;-8.87;40.73
36514;BME280;66331;46.796;9.824;2023-01-29T10:20:14;84779.58;;;-8.66;39.33
36514;BME280;66331;46.796;9.824;2023-01-29T10:22:51;84772.23;;;-8.35;38.72
36514;BME280;66331;46.796;9.824;2023-01-29T10:25:22;84764.48;;;-7.78;37.41
36514;BME280;66331;46.796;9.824;2023-01-29T10:27:52;84758.40;;;-7.95;37.05
36514;BME280;66331;46.796;9.824;2023-01-29T10:30:27;84756.01;;;-7.49;35.67
36514;BME280;66331;46.796;9.824;2023-01-29T10:32:58;84752.41;;;-8.07;36.44
36514;BME280;66331;46.796;9.824;2023-01-29T10:35:31;84751.17;;;-7.34;35.93
36514;BME280;66331;46.796;9.824;2023-01-29T10:38:13;84749.83;;;-7.26;35.76
36514;BME280;66331;46.796;9.824;2023-01-29T10:40:45;84745.49;;;-7.31;37.26
36514;BME280;66331;46.796;9.824;2023-01-29T10:43:20;84738.31;;;-6.91;35.99
36514;BME280;66331;46.796;9.824;2023-01-29T10:45:58;84736.22;;;-6.51;35.66
36514;BME280;66331;46.796;9.824;2023-01-29T10:48:38;84733.34;;;-6.88;37.32
36514;BME280;66331;46.796;9.824;2023-01-29T10:51:18;84734.20;;;-6.63;37.73
36514;BME280;66331;46.796;9.824;2023-01-29T10:53:59;84734.05;;;-6.31;37.96
36514;BME280;66331;46.796;9.824;2023-01-29T10:56:39;84733.81;;;-6.53;36.86
36514;BME280;66331;46.796;9.824;2023-01-29T10:59:25;84735.04;;;-6.11;35.24
36514;BME280;66331;46.796;9.824;2023-01-29T11:01:57;84732.67;;;-5.93;35.11
36514;BME280;66331;46.796;9.824;2023-01-29T11:04:25;84735.04;;;-5.89;33.79
36514;BME280;66331;46.796;9.824;2023-01-29T11:06:52;84734.60;;;-5.81;32.19
36514;BME280;66331;46.796;9.824;2023-01-29T11:09:27;84734.26;;;-5.56;31.72
36514;BME280;66331;46.796;9.824;2023-01-29T11:11:59;84735.54;;;-5.34;31.86
36514;BME280;66331;46.796;9.824;2023-01-29T11:14:30;84736.40;;;-5.39;32.91
36514;BME280;66331;46.796;9.824;2023-01-29T11:17:00;84738.08;;;-5.23;33.33
36514;BME280;66331;46.796;9.824;2023-01-29T11:19:37;84743.96;;;-5.10;32.74
36514;BME280;66331;46.796;9.824;2023-01-29T11:22:04;84742.99;;;-5.13;32.33
36514;BME280;66331;46.796;9.824;2023-01-29T11:24:37;84740.65;;;-4.66;32.29
36514;BME280;66331;46.796;9.824;2023-01-29T11:27:13;84739.06;;;-4.83;32.07
36514;BME280;66331;46.796;9.824;2023-01-29T11:29:44;84734.83;;;-4.91;30.76
36514;BME280;66331;46.796;9.824;2023-01-29T11:32:13;84737.90;;;-5.14;30.62
36514;BME280;66331;46.796;9.824;2023-01-29T11:34:59;84733.93;;;-4.60;28.50
36514;BME280;66331;46.796;9.824;2023-01-29T11:37:36;84727.82;;;-4.32;27.93
36514;BME280;66331;46.796;9.824;2023-01-29T11:40:33;84726.01;;;-4.21;27.57
36514;BME280;66331;46.796;9.824;2023-01-29T11:43:19;84722.92;;;-3.98;27.75
36514;BME280;66331;46.796;9.824;2023-01-29T11:45:49;84717.76;;;-4.20;27.79
36514;BME280;66331;46.796;9.824;2023-01-29T11:48:20;84712.37;;;-4.27;28.21
36514;BME280;66331;46.796;9.824;2023-01-29T11:50:52;84703.01;;;-3.47;26.80
36514;BME280;66331;46.796;9.824;2023-01-29T11:53:25;84697.19;;;-3.18;27.37
36514;BME280;66331;46.796;9.824;2023-01-29T11:55:53;84694.68;;;-3.46;29.49
36514;BME280;66331;46.796;9.824;2023-01-29T11:58:25;84692.93;;;-3.41;29.90
36514;BME280;66331;46.796;9.824;2023-01-29T12:00:54;84689.35;;;-3.41;29.44
36514;BME280;66331;46.796;9.824;2023-01-29T12:03:30;84686.85;;;-3.40;29.40
36514;BME280;66331;46.796;9.824;2023-01-29T12:06:02;84685.98;;;-3.31;28.54
36514;BME280;66331;46.796;9.824;2023-01-29T12:08:34;84680.38;;;-3.70;29.10
36514;BME280;66331;46.796;9.824;2023-01-29T12:11:12;84678.41;;;-3.25;27.98
36514;BME280;66331;46.796;9.824;2023-01-29T12:13:41;84674.42;;;-3.14;27.68
36514;BME280;66331;46.796;9.824;2023-01-29T12:16:15;84672.01;;;-2.52;26.49
36514;BME280;66331;46.796;9.824;2023-01-29T12:18:48;84671.30;;;-2.92;27.38
36514;BME280;66331;46.796;9.824;2023-01-29T12:21:21;84670.17;;;-2.91;27.06
36514;BME280;66331;46.796;9.824;2023-01-29T12:23:56;84667.06;;;-2.17;26.75
36514;BME280;66331;46.796;9.824;2023-01-29T12:26:30;84662.48;;;-1.59;26.34
36514;BME280;66331;46.796;9.824;2023-01-29T12:29:22;84661.23;;;-1.89;26.47
36514;BME280;66331;46.796;9.824;2023-01-29T12:32:00;84661.11;;;-2.27;27.20
36514;BME280;66331;46.796;9.824;2023-01-29T12:34:37;84661.00;;;-1.84;27.18
36514;BME280;66331;46.796;9.824;2023-01-29T12:37:12;84662.76;;;-1.65;27.41
36514;BME280;66331;46.796;9.824;2023-01-29T12:39:42;84661.38;;;-2.28;27.61
36514;BME280;66331;46.796;9.824;2023-01-29T12:42:14;84664.64;;;-1.81;27.75
36514;BME280;66331;46.796;9.824;2023-01-29T12:44:46;84664.73;;;-1.91;27.74
36514;BME280;66331;46.796;9.824;2023-01-29T12:47:18;84665.73;;;-1.94;27.35
36514;BME280;66331;46.796;9.824;2023-01-29T12:49:51;84670.50;;;-1.63;27.40
36514;BME280;66331;46.796;9.824;2023-01-29T12:52:24;84673.22;;;-1.66;26.77
36514;BME280;66331;46.796;9.824;2023-01-29T12:54:55;84671.82;;;-1.75;26.72
36514;BME280;66331;46.796;9.824;2023-01-29T12:57:31;84674.24;;;-1.33;26.68
36514;BME280;66331;46.796;9.824;2023-01-29T13:00:05;84676.29;;;-1.65;26.57
36514;BME280;66331;46.796;9.824;2023-01-29T13:02:38;84676.89;;;-1.57;26.76
36514;BME280;66331;46.796;9.824;2023-01-29T13:05:16;84680.11;;;-1.92;27.76
36514;BME280;66331;46.796;9.824;2023-01-29T13:07:48;84677.52;;;-2.14;27.46
36514;BME280;66331;46.796;9.824;2023-01-29T13:10:22;84679.07;;;-1.51;27.27
36514;BME280;66331;46.796;9.824;2023-01-29T13:12:56;84680.70;;;-1.34;27.81